createdAt,value
2023-01-11T00:01:35.455Z,8.60
2023-01-11T00:04:05.968Z,5.47
2023-01-11T00:06:36.394Z,6.15
2023-01-11T00:09:06.902Z,4.35
2023-01-11T00:11:39.830Z,4.90
2023-01-11T00:14:10.140Z,5.43
2023-01-11T00:16:40.495Z,7.20
2023-01-11T00:19:11.065Z,5.53
2023-01-11T00:21:41.405Z,4.50
2023-01-11T00:24:11.821Z,5.97
2023-01-11T00:26:44.753Z,7.18
2023-01-11T00:29:15.069Z,7.68
2023-01-11T00:31:45.326Z,4.73
2023-01-11T00:34:16.041Z,6.43
2023-01-11T00:36:46.392Z,7.65
2023-01-11T00:39:16.669Z,8.03
2023-01-11T00:42:01.926Z,5.60
2023-01-11T00:44:44.639Z,6.78
2023-01-11T00:47:29.752Z,5.13
2023-01-11T00:50:00.089Z,3.13
2023-01-11T00:52:30.681Z,5.47
2023-01-11T00:55:01.018Z,4.35
2023-01-11T00:57:33.988Z,7.60
2023-01-11T01:00:04.338Z,5.10
2023-01-11T01:02:35.692Z,4.00
2023-01-11T01:05:06.113Z,6.88
2023-01-11T01:07:36.727Z,7.63
2023-01-11T01:10:09.491Z,6.07
2023-01-11T01:12:55.127Z,3.67
2023-01-11T01:15:25.933Z,2.85
2023-01-11T01:17:57.757Z,4.95
2023-01-11T01:20:29.031Z,4.47
2023-01-11T01:22:59.320Z,4.88
2023-01-11T01:25:29.588Z,4.77
2023-01-11T01:28:02.525Z,5.10
2023-01-11T01:30:33.870Z,6.22
2023-01-11T01:33:04.204Z,5.28
2023-01-11T01:35:35.597Z,9.63
2023-01-11T01:38:05.878Z,6.68
2023-01-11T01:40:36.223Z,3.87
2023-01-11T01:43:12.379Z,5.27
2023-01-11T01:45:43.873Z,5.25
2023-01-11T01:48:18.341Z,6.40
2023-01-11T01:50:53.257Z,6.32
2023-01-11T01:53:28.745Z,5.10
2023-01-11T01:56:04.707Z,7.25
2023-01-11T01:58:42.001Z,6.35
2023-01-11T02:01:24.707Z,5.43
2023-01-11T02:03:56.389Z,4.63
2023-01-11T02:06:27.215Z,3.28
2023-01-11T02:09:05.438Z,3.40
2023-01-11T02:11:43.412Z,5.07
2023-01-11T02:14:20.550Z,4.38
2023-01-11T02:16:51.175Z,6.53
2023-01-11T02:19:36.514Z,4.65
2023-01-11T02:22:45.058Z,3.65
2023-01-11T02:26:06.268Z,5.45
2023-01-11T02:28:55.896Z,7.00
2023-01-11T02:31:34.842Z,5.90
2023-01-11T02:34:35.647Z,4.38
2023-01-11T02:37:20.490Z,4.55
2023-01-11T02:40:02.812Z,4.25
2023-01-11T02:42:54.607Z,4.57
2023-01-11T02:45:50.003Z,3.70
2023-01-11T02:48:29.976Z,4.47
2023-01-11T02:51:08.075Z,4.13
2023-01-11T02:53:46.013Z,4.47
2023-01-11T02:56:20.821Z,2.75
2023-01-11T02:58:55.208Z,5.18
2023-01-11T03:01:28.535Z,3.42
2023-01-11T03:03:59.083Z,3.60
2023-01-11T03:06:34.413Z,3.60
2023-01-11T03:09:23.299Z,3.10
2023-01-11T03:12:26.400Z,3.13
2023-01-11T03:15:10.207Z,3.72
2023-01-11T03:17:56.134Z,5.07
2023-01-11T03:20:34.217Z,2.72
2023-01-11T03:23:17.412Z,3.40
2023-01-11T03:26:01.689Z,2.97
2023-01-11T03:28:40.544Z,2.13
2023-01-11T03:31:20.987Z,4.32
2023-01-11T03:34:03.336Z,2.97
2023-01-11T03:36:40.087Z,3.63
2023-01-11T03:39:17.879Z,4.82
2023-01-11T03:41:52.952Z,3.10
2023-01-11T03:44:25.036Z,2.72
2023-01-11T03:47:01.053Z,4.28
2023-01-11T03:49:37.258Z,3.72
2023-01-11T03:52:12.832Z,2.72
2023-01-11T03:54:43.919Z,3.25
2023-01-11T03:59:48.135Z,3.92
2023-01-11T04:02:20.255Z,3.33
2023-01-11T04:04:53.461Z,2.92
2023-01-11T04:07:24.190Z,6.05
2023-01-11T04:09:54.572Z,3.10
2023-01-11T04:12:24.802Z,3.70
2023-01-11T04:14:55.128Z,2.97
2023-01-11T04:17:25.406Z,2.27
2023-01-11T04:19:58.311Z,3.30
2023-01-11T04:22:28.599Z,2.63
2023-01-11T04:24:58.857Z,2.03
2023-01-11T04:27:29.187Z,2.10
2023-01-11T04:29:59.489Z,3.50
2023-01-11T04:32:29.738Z,2.90
2023-01-11T04:35:02.640Z,2.70
2023-01-11T04:37:32.989Z,2.80
2023-01-11T04:40:03.511Z,1.67
2023-01-11T04:42:31.239Z,3.38
2023-01-11T04:45:01.510Z,3.83
2023-01-11T04:47:32.032Z,2.60
2023-01-11T04:50:05.056Z,1.88
2023-01-11T04:52:35.431Z,2.35
2023-01-11T04:55:05.861Z,2.97
2023-01-11T04:57:36.241Z,2.97
2023-01-11T05:00:10.879Z,2.50
2023-01-11T05:02:41.332Z,2.92
2023-01-11T05:05:14.887Z,2.65
2023-01-11T05:07:45.313Z,3.97
2023-01-11T05:10:15.690Z,2.90
2023-01-11T05:12:47.067Z,2.40
2023-01-11T05:15:17.581Z,3.25
2023-01-11T05:17:48.058Z,3.20
2023-01-11T05:20:21.248Z,2.53
2023-01-11T05:22:51.579Z,2.63
2023-01-11T05:25:21.870Z,2.70
2023-01-11T05:27:52.187Z,4.63
2023-01-11T05:30:22.779Z,2.60
2023-01-11T05:32:53.124Z,5.85
2023-01-11T05:35:26.395Z,1.87
2023-01-11T05:37:56.682Z,3.80
2023-01-11T05:40:26.953Z,2.53
2023-01-11T05:42:57.425Z,2.33
2023-01-11T05:45:32.460Z,25.65
2023-01-11T05:48:02.951Z,4.20
2023-01-11T05:50:36.019Z,2.85
2023-01-11T05:53:07.198Z,2.50
2023-01-11T05:58:09.607Z,2.70
2023-01-11T06:00:39.945Z,2.70
2023-01-11T06:03:10.247Z,2.63
2023-01-11T06:05:44.320Z,4.63
2023-01-11T06:08:17.327Z,3.67
2023-01-11T06:10:53.703Z,3.22
2023-01-11T06:13:30.853Z,2.67
2023-01-11T06:16:03.903Z,3.20
2023-01-11T06:18:37.259Z,2.47
2023-01-11T06:21:11.619Z,2.60
2023-01-11T06:23:46.309Z,2.70
2023-01-11T06:26:19.145Z,4.88
2023-01-11T06:28:50.579Z,2.25
2023-01-11T06:31:21.543Z,2.85
2023-01-11T06:33:51.974Z,1.77
2023-01-11T06:36:24.886Z,3.03
2023-01-11T06:38:55.864Z,2.42
2023-01-11T06:41:26.198Z,4.78
2023-01-11T06:43:56.579Z,2.90
2023-01-11T06:46:28.970Z,1.80
2023-01-11T06:48:59.487Z,2.88
2023-01-11T06:51:32.597Z,1.77
2023-01-11T06:54:02.856Z,3.25
2023-01-11T06:56:33.206Z,3.30
2023-01-11T06:59:03.521Z,2.30
2023-01-11T07:01:33.934Z,2.00
2023-01-11T07:04:04.596Z,1.33
2023-01-11T07:06:40.265Z,2.93
2023-01-11T07:09:10.595Z,2.65
2023-01-11T07:11:41.648Z,1.83
2023-01-11T07:14:12.281Z,2.35
2023-01-11T07:16:42.831Z,6.40
2023-01-11T07:19:13.200Z,1.55
2023-01-11T07:21:48.989Z,1.30
2023-01-11T07:24:19.828Z,1.52
2023-01-11T07:26:50.244Z,1.40
2023-01-11T07:29:20.573Z,1.40
2023-01-11T07:31:51.061Z,2.20
2023-01-11T07:34:21.643Z,1.00
2023-01-11T07:36:54.722Z,2.03
2023-01-11T07:39:34.872Z,1.33
2023-01-11T07:42:26.580Z,1.85
2023-01-11T07:44:56.855Z,1.40
2023-01-11T07:47:27.669Z,12.63
2023-01-11T07:49:58.030Z,2.15
2023-01-11T07:52:30.895Z,1.77
2023-01-11T07:55:02.868Z,1.60
2023-01-11T07:57:33.629Z,1.88
2023-01-11T08:00:04.201Z,0.65
2023-01-11T08:02:41.898Z,1.88
2023-01-11T08:05:13.403Z,1.63
2023-01-11T08:07:47.538Z,1.60
2023-01-11T08:10:18.959Z,2.90
2023-01-11T08:13:03.246Z,1.92
2023-01-11T08:15:34.133Z,1.35
2023-01-11T08:18:05.951Z,0.93
2023-01-11T08:20:36.423Z,2.13
2023-01-11T08:23:11.649Z,1.83
2023-01-11T08:25:42.074Z,2.47
2023-01-11T08:28:14.525Z,1.37
2023-01-11T08:30:44.968Z,2.35
2023-01-11T08:33:15.371Z,1.20
2023-01-11T08:35:45.627Z,1.73
2023-01-11T08:38:18.582Z,1.40
2023-01-11T08:40:48.879Z,1.52
2023-01-11T08:43:19.277Z,1.50
2023-01-11T08:45:49.698Z,1.67
2023-01-11T08:48:20.471Z,1.52
2023-01-11T08:50:53.485Z,1.52
2023-01-11T08:53:26.430Z,1.48
2023-01-11T08:55:57.391Z,1.77
2023-01-11T08:58:28.214Z,1.30
2023-01-11T09:01:04.060Z,2.20
2023-01-11T09:03:34.562Z,1.55
2023-01-11T09:06:05.443Z,2.08
2023-01-11T09:08:38.542Z,1.30
2023-01-11T09:11:29.202Z,1.80
2023-01-11T09:13:59.491Z,2.80
2023-01-11T09:16:29.770Z,0.77
2023-01-11T09:19:00.091Z,1.53
2023-01-11T09:21:31.076Z,1.05
2023-01-11T09:24:04.699Z,1.38
2023-01-11T09:26:35.912Z,1.15
2023-01-11T09:29:06.389Z,1.27
2023-01-11T09:31:36.838Z,1.60
2023-01-11T09:34:08.364Z,2.63
2023-01-11T09:36:40.263Z,2.28
2023-01-11T09:39:18.436Z,1.33
2023-01-11T09:42:36.733Z,1.60
2023-01-11T09:45:17.565Z,3.08
2023-01-11T09:47:51.908Z,1.98
2023-01-11T09:50:28.047Z,2.72
2023-01-11T09:53:03.496Z,1.70
2023-01-11T09:55:40.822Z,4.18
2023-01-11T09:58:36.568Z,1.50
2023-01-11T10:01:16.523Z,1.20
2023-01-11T10:04:26.036Z,1.27
2023-01-11T10:07:38.491Z,1.20
2023-01-11T10:18:34.249Z,1.85
2023-01-11T10:19:41.899Z,1.00
2023-01-11T10:22:20.274Z,1.65
2023-01-11T10:24:56.472Z,1.25
2023-01-11T10:27:33.859Z,2.63
2023-01-11T10:30:33.498Z,3.25
2023-01-11T10:33:18.443Z,3.63
2023-01-11T10:36:14.961Z,5.47
2023-01-11T10:38:59.282Z,2.15
2023-01-11T10:41:43.030Z,1.30
2023-01-11T10:44:19.777Z,3.85
2023-01-11T10:46:56.233Z,1.75
2023-01-11T10:49:43.342Z,1.35
2023-01-11T10:52:37.104Z,1.15
2023-01-11T10:55:15.766Z,4.20
2023-01-11T10:58:03.604Z,1.95
2023-01-11T11:00:43.065Z,1.50
2023-01-11T11:04:00.033Z,1.65
2023-01-11T11:06:41.797Z,1.52
2023-01-11T11:09:23.893Z,1.45
2023-01-11T11:12:01.108Z,1.85
2023-01-11T11:14:37.470Z,1.30
2023-01-11T11:17:19.928Z,2.00
2023-01-11T11:19:53.114Z,1.77
2023-01-11T11:22:23.839Z,1.50
2023-01-11T11:25:02.554Z,3.13
2023-01-11T11:27:40.708Z,9.40
2023-01-11T11:30:15.231Z,1.33
2023-01-11T11:32:57.260Z,3.90
2023-01-11T11:35:44.045Z,4.18
2023-01-11T11:38:25.655Z,1.65
2023-01-11T11:41:01.828Z,3.25
2023-01-11T11:43:32.154Z,2.38
2023-01-11T11:46:04.482Z,0.90
2023-01-11T11:48:36.892Z,0.98
2023-01-11T11:51:20.334Z,2.45
2023-01-11T11:53:55.894Z,3.42
2023-01-11T11:56:30.697Z,5.30
2023-01-11T11:59:02.781Z,1.48
2023-01-11T12:01:36.236Z,1.92
2023-01-11T12:04:15.454Z,2.15
2023-01-11T12:06:55.682Z,1.75
2023-01-11T12:09:32.895Z,1.57
2023-01-11T12:12:04.181Z,1.45
2023-01-11T12:14:36.612Z,1.73
2023-01-11T12:17:26.460Z,2.55
2023-01-11T12:19:56.796Z,2.58
2023-01-11T12:22:31.935Z,1.15
2023-01-11T12:25:25.286Z,1.80
2023-01-11T12:28:05.699Z,1.75
2023-01-11T12:30:45.050Z,1.50
2023-01-11T12:33:38.046Z,1.10
2023-01-11T12:36:13.692Z,2.05
2023-01-11T12:39:05.250Z,1.85
2023-01-11T12:42:12.098Z,2.67
2023-01-11T12:45:06.339Z,3.55
2023-01-11T12:48:13.516Z,2.15
2023-01-11T12:50:59.088Z,3.10
2023-01-11T12:53:48.272Z,1.73
2023-01-11T12:56:53.617Z,1.75
2023-01-11T12:59:49.271Z,1.63
2023-01-11T13:02:39.789Z,2.08
2023-01-11T13:05:26.414Z,1.70
2023-01-11T13:08:11.863Z,1.20
2023-01-11T13:10:55.808Z,2.13
2023-01-11T13:13:37.380Z,3.08
2023-01-11T13:16:17.261Z,2.38
2023-01-11T13:18:57.295Z,3.47
2023-01-11T13:21:36.288Z,2.10
2023-01-11T13:24:15.276Z,1.00
2023-01-11T13:26:51.555Z,1.63
2023-01-11T13:29:28.725Z,1.10
2023-01-11T13:32:03.119Z,1.33
2023-01-11T13:34:39.867Z,1.05
2023-01-11T13:37:20.875Z,1.63
2023-01-11T13:39:57.038Z,2.08
2023-01-11T13:42:37.079Z,2.25
2023-01-11T13:45:19.486Z,2.33
2023-01-11T13:47:55.908Z,2.20
2023-01-11T13:50:32.126Z,1.67
2023-01-11T13:53:12.649Z,2.58
2023-01-11T13:55:54.578Z,2.03
2023-01-11T13:58:36.762Z,2.60
2023-01-11T14:01:13.669Z,1.70
2023-01-11T14:03:51.217Z,4.45
2023-01-11T14:06:44.936Z,2.30
2023-01-11T14:09:37.881Z,2.42
2023-01-11T14:12:18.019Z,1.55
2023-01-11T14:15:10.988Z,2.03
2023-01-11T14:18:09.388Z,3.53
2023-01-11T14:20:50.207Z,1.48
2023-01-11T14:23:23.817Z,2.03
2023-01-11T14:26:17.464Z,3.55
2023-01-11T14:29:04.525Z,2.17
2023-01-11T14:32:24.789Z,2.20
2023-01-11T14:35:36.501Z,3.85
2023-01-11T14:38:31.317Z,1.75
2023-01-11T14:41:36.661Z,1.30
2023-01-11T14:44:42.608Z,1.95
2023-01-11T14:47:54.835Z,1.83
2023-01-11T14:50:38.640Z,1.83
2023-01-11T14:53:14.229Z,1.98
2023-01-11T14:55:49.268Z,1.98
2023-01-11T14:58:27.150Z,4.63
2023-01-11T15:01:13.243Z,2.47
2023-01-11T15:03:51.302Z,1.65
2023-01-11T15:06:23.268Z,2.15
2023-01-11T15:08:57.140Z,2.92
2023-01-11T15:11:40.926Z,2.05
2023-01-11T15:14:32.809Z,2.20
2023-01-11T15:17:18.083Z,4.65
2023-01-11T15:19:53.455Z,1.77
2023-01-11T15:22:31.393Z,3.03
2023-01-11T15:25:04.589Z,2.05
2023-01-11T15:27:38.577Z,2.90
2023-01-11T15:30:32.285Z,2.67
2023-01-11T15:33:31.297Z,2.35
2023-01-11T15:36:11.520Z,2.67
2023-01-11T15:38:53.754Z,1.85
2023-01-11T15:41:58.220Z,2.25
2023-01-11T15:44:54.709Z,2.50
2023-01-11T15:47:52.011Z,2.60
2023-01-11T15:51:07.709Z,3.00
2023-01-11T15:54:28.905Z,2.22
2023-01-11T15:57:49.853Z,2.55
2023-01-11T16:00:56.741Z,3.20
2023-01-11T16:04:03.115Z,2.25
2023-01-11T16:06:44.548Z,2.50
2023-01-11T16:09:56.236Z,3.35
2023-01-11T16:12:49.043Z,5.75
2023-01-11T16:15:33.455Z,3.67
2023-01-11T16:18:15.637Z,4.13
2023-01-11T16:20:57.846Z,2.88
2023-01-11T16:23:28.274Z,3.75
2023-01-11T16:26:02.342Z,4.18
2023-01-11T16:28:32.769Z,6.15
2023-01-11T16:31:06.170Z,3.50
2023-01-11T16:33:37.535Z,2.60
2023-01-11T16:36:12.961Z,4.07
2023-01-11T16:38:52.416Z,3.10
2023-01-11T16:41:29.020Z,4.57
2023-01-11T16:44:06.524Z,3.28
2023-01-11T16:47:15.857Z,3.60
2023-01-11T16:49:52.304Z,3.10
2023-01-11T16:52:48.777Z,3.38
2023-01-11T16:55:34.204Z,2.65
2023-01-11T16:58:10.497Z,3.92
2023-01-11T17:00:41.966Z,5.82
2023-01-11T17:03:27.065Z,3.30
2023-01-11T17:06:22.952Z,2.20
2023-01-11T17:09:00.059Z,4.35
2023-01-11T17:11:35.793Z,4.90
2023-01-11T17:14:34.210Z,4.45
2023-01-11T17:17:07.628Z,3.58
2023-01-11T17:19:41.720Z,3.97
2023-01-11T17:22:21.951Z,8.13
2023-01-11T17:24:56.479Z,4.10
2023-01-11T17:27:33.211Z,6.63
2023-01-11T17:30:08.340Z,4.50
2023-01-11T17:32:41.822Z,5.35
2023-01-11T17:35:20.230Z,4.32
2023-01-11T17:37:53.549Z,5.53
2023-01-11T17:40:27.211Z,5.28
2023-01-11T17:43:18.934Z,4.93
2023-01-11T17:45:55.400Z,4.57
2023-01-11T17:48:27.035Z,4.70
2023-01-11T17:51:00.226Z,3.90
2023-01-11T17:53:32.652Z,4.03
2023-01-11T17:56:05.754Z,4.60
2023-01-11T17:58:37.522Z,4.88
2023-01-11T18:01:31.446Z,4.35
2023-01-11T18:04:02.420Z,7.07
2023-01-11T18:06:40.144Z,5.70
2023-01-11T18:09:24.236Z,4.25
2023-01-11T18:11:56.843Z,4.93
2023-01-11T18:14:31.377Z,5.75
2023-01-11T18:17:08.206Z,19.00
2023-01-11T18:19:43.898Z,4.15
2023-01-11T18:22:32.932Z,4.15
2023-01-11T18:25:06.123Z,4.93
2023-01-11T18:27:38.289Z,7.68
2023-01-11T18:30:11.481Z,3.83
2023-01-11T18:32:46.390Z,5.65
2023-01-11T18:35:20.318Z,4.35
2023-01-11T18:37:50.793Z,5.70
2023-01-11T18:40:22.678Z,4.80
2023-01-11T18:42:56.289Z,6.30
2023-01-11T18:45:26.637Z,4.70
2023-01-11T18:47:59.643Z,5.60
2023-01-11T18:50:29.907Z,6.97
2023-01-11T18:53:03.140Z,5.18
2023-01-11T18:55:33.967Z,5.13
2023-01-11T18:58:04.401Z,6.70
2023-01-11T19:00:35.130Z,5.53
2023-01-11T19:03:09.026Z,6.45
2023-01-11T19:05:40.188Z,8.77
2023-01-11T19:08:10.705Z,8.27
2023-01-11T19:10:41.064Z,9.32
2023-01-11T19:13:12.414Z,9.10
2023-01-11T19:15:42.757Z,7.25
2023-01-11T19:18:16.223Z,6.45
2023-01-11T19:20:46.750Z,9.30
2023-01-11T19:23:17.248Z,8.90
2023-01-11T19:25:47.640Z,6.95
2023-01-11T19:28:17.924Z,6.97
2023-01-11T19:30:48.272Z,6.23
2023-01-11T19:33:21.279Z,11.07
2023-01-11T19:35:51.805Z,6.70
2023-01-11T19:38:23.475Z,9.05
2023-01-11T19:40:53.792Z,7.60
2023-01-11T19:43:24.078Z,8.77
2023-01-11T19:45:58.923Z,11.17
2023-01-11T19:48:34.434Z,7.47
2023-01-11T19:51:07.537Z,8.65
2023-01-11T19:53:38.886Z,11.30
2023-01-11T19:56:11.752Z,6.47
2023-01-11T19:58:42.379Z,7.53
2023-01-11T20:01:14.476Z,8.10
2023-01-11T20:03:47.629Z,7.03
2023-01-11T20:06:17.913Z,6.80
2023-01-11T20:08:48.164Z,6.60
2023-01-11T20:11:19.188Z,9.33
2023-01-11T20:13:50.833Z,7.32
2023-01-11T20:16:23.719Z,6.85
2023-01-11T20:18:59.015Z,7.15
2023-01-11T20:21:34.289Z,6.25
2023-01-11T20:24:05.223Z,6.32
2023-01-11T20:26:35.946Z,6.65
2023-01-11T20:29:06.630Z,7.40
2023-01-11T20:31:37.667Z,5.82
2023-01-11T20:36:42.764Z,6.50
2023-01-11T20:39:14.518Z,9.27
2023-01-11T20:41:51.098Z,7.47
2023-01-11T20:44:24.029Z,7.93
2023-01-11T20:46:55.747Z,4.72
2023-01-11T20:49:30.976Z,8.80
2023-01-11T20:52:01.445Z,10.52
2023-01-11T20:54:32.024Z,9.77
2023-01-11T20:57:05.658Z,7.60
2023-01-11T20:59:35.994Z,8.45
2023-01-11T21:02:07.676Z,8.83
2023-01-11T21:04:40.683Z,7.18
2023-01-11T21:07:11.055Z,9.18
2023-01-11T21:09:41.649Z,9.88
2023-01-11T21:12:12.079Z,6.72
2023-01-11T21:14:42.482Z,9.82
2023-01-11T21:17:12.932Z,8.95
2023-01-11T21:19:45.946Z,8.00
2023-01-11T21:22:16.283Z,10.70
2023-01-11T21:24:48.453Z,9.40
2023-01-11T21:27:18.746Z,14.77
2023-01-11T21:29:49.367Z,6.60
2023-01-11T21:32:19.823Z,8.35
2023-01-11T21:34:52.944Z,7.60
2023-01-11T21:37:24.780Z,6.28
2023-01-11T21:39:55.318Z,8.30
2023-01-11T21:42:25.707Z,14.30
2023-01-11T21:44:56.063Z,6.83
2023-01-11T21:47:26.432Z,7.63
2023-01-11T21:49:59.732Z,5.30
2023-01-11T21:52:30.081Z,6.68
2023-01-11T21:55:00.424Z,7.47
2023-01-11T21:57:30.785Z,4.80
2023-01-11T22:00:01.236Z,8.20
2023-01-11T22:02:31.662Z,5.78
2023-01-11T22:05:04.797Z,8.57
2023-01-11T22:07:35.130Z,4.72
2023-01-11T22:10:05.840Z,7.25
2023-01-11T22:12:37.314Z,12.27
2023-01-11T22:15:08.890Z,10.77
2023-01-11T22:17:39.197Z,5.72
2023-01-11T22:20:15.353Z,8.87
2023-01-11T22:22:45.909Z,10.05
2023-01-11T22:25:17.180Z,6.95
2023-01-11T22:27:47.520Z,6.38
2023-01-11T22:30:18.722Z,6.60
2023-01-11T22:35:21.817Z,6.25
2023-01-11T22:37:52.383Z,5.97
2023-01-11T22:40:22.996Z,8.55
2023-01-11T22:42:53.331Z,13.60
2023-01-11T22:45:23.765Z,9.87
2023-01-11T22:47:54.290Z,5.22
2023-01-11T22:50:27.330Z,7.30
2023-01-11T22:52:57.779Z,7.53
2023-01-11T22:55:28.520Z,9.82
2023-01-11T22:57:59.981Z,6.05
2023-01-11T23:00:30.337Z,10.82
2023-01-11T23:03:01.182Z,6.53
2023-01-11T23:05:34.434Z,6.90
2023-01-11T23:08:05.080Z,8.85
2023-01-11T23:10:35.541Z,5.10
2023-01-11T23:13:18.288Z,9.27
2023-01-11T23:15:50.922Z,6.80
2023-01-11T23:18:21.333Z,10.50
2023-01-11T23:20:54.328Z,9.35
2023-01-11T23:23:24.663Z,9.85
2023-01-11T23:25:57.501Z,10.77
2023-01-11T23:28:29.970Z,7.22
2023-01-11T23:31:00.217Z,11.13
2023-01-11T23:33:30.495Z,10.03
2023-01-11T23:36:04.701Z,7.70
2023-01-11T23:38:35.675Z,8.85
2023-01-11T23:41:23.423Z,7.70
2023-01-11T23:43:53.821Z,7.38
2023-01-11T23:46:37.142Z,8.02
2023-01-11T23:49:09.128Z,9.05
2023-01-11T23:51:42.039Z,6.00
2023-01-11T23:54:12.625Z,7.60
2023-01-11T23:56:43.400Z,8.27
2023-01-11T23:59:14.135Z,6.32
